Time;durP1;ratioP1;P1;durP2;ratioP2;P2;SDS_P1;SDS_P2;PMS_P1;PMS_P2;Temp;Humidity;BMP_temperature;BMP_pressure;BME280_temperature;BME280_humidity;BME280_pressure;Samples;Min_cycle;Max_cycle;Signal;HPM_P1;HPM_P2
2022/11/01 00:01:11;;;;;;;12.60;4.75;;;13.50;99.90;;;;;;5007358;28;20152;-76
2022/11/01 00:03:36;;;;;;;17.17;6.25;;;13.50;99.90;;;;;;4990157;28;20471;-76
2022/11/01 00:06:03;;;;;;;17.13;5.88;;;13.60;99.90;;;;;;4990826;28;20029;-76
2022/11/01 00:08:28;;;;;;;11.88;5.07;;;13.70;99.90;;;;;;4990581;28;20042;-76
2022/11/01 00:11:06;;;;;;;21.98;6.72;;;13.70;99.90;;;;;;4991965;28;20034;-76
2022/11/01 00:13:31;;;;;;;15.57;6.55;;;13.70;99.90;;;;;;4989940;28;20058;-78
2022/11/01 00:15:58;;;;;;;11.25;6.25;;;13.80;99.90;;;;;;4991920;28;20108;-77
2022/11/01 00:18:25;;;;;;;17.67;6.88;;;13.80;99.90;;;;;;4990596;28;20041;-77
2022/11/01 00:20:51;;;;;;;21.25;6.32;;;13.80;99.90;;;;;;4990824;28;20032;-77
2022/11/01 00:23:16;;;;;;;21.90;6.63;;;13.70;99.90;;;;;;4989706;28;20026;-77
2022/11/01 00:25:42;;;;;;;13.23;6.05;;;13.80;99.90;;;;;;4991707;28;20030;-77
2022/11/01 00:28:08;;;;;;;14.98;5.78;;;13.80;99.90;;;;;;4991832;28;20038;-77
2022/11/01 00:30:38;;;;;;;10.10;5.80;;;13.80;99.90;;;;;;4991820;28;20430;-76
2022/11/01 00:33:04;;;;;;;12.73;6.75;;;13.80;99.90;;;;;;4991170;28;20446;-77
2022/11/01 00:35:31;;;;;;;13.45;6.88;;;13.80;99.90;;;;;;4990608;28;20039;-76
2022/11/01 00:37:58;;;;;;;11.90;5.13;;;13.80;99.90;;;;;;4990297;28;20049;-77
2022/11/01 00:40:25;;;;;;;14.15;5.45;;;13.90;99.90;;;;;;4990681;28;20045;-77
2022/11/01 00:42:51;;;;;;;11.35;5.72;;;13.80;99.90;;;;;;4989808;28;20049;-76
2022/11/01 00:45:17;;;;;;;11.63;6.13;;;13.80;99.90;;;;;;4991662;28;20038;-76
2022/11/01 00:47:44;;;;;;;12.07;5.95;;;13.80;99.90;;;;;;4990170;28;20574;-76
2022/11/01 00:50:10;;;;;;;12.23;5.60;;;13.90;99.90;;;;;;4990589;28;20094;-76
2022/11/01 00:52:36;;;;;;;14.38;5.53;;;13.90;99.90;;;;;;4989502;28;20026;-76
2022/11/01 00:55:02;;;;;;;12.27;5.47;;;13.90;99.90;;;;;;4991552;28;20114;-77
2022/11/01 00:57:27;;;;;;;19.27;5.78;;;13.90;99.90;;;;;;4991327;28;20072;-76
2022/11/01 00:59:53;;;;;;;13.07;5.43;;;13.90;99.90;;;;;;4990266;28;20195;-76
2022/11/01 01:02:19;;;;;;;14.27;6.30;;;13.90;99.90;;;;;;4989352;28;20458;-76
2022/11/01 01:04:44;;;;;;;13.57;6.70;;;13.90;99.90;;;;;;4990121;28;20042;-77
2022/11/01 01:07:10;;;;;;;9.55;5.30;;;13.90;99.90;;;;;;4991175;28;20035;-77
2022/11/01 01:09:36;;;;;;;10.23;5.53;;;13.90;99.90;;;;;;4991457;28;20117;-76
2022/11/01 01:12:02;;;;;;;12.77;5.55;;;13.90;99.90;;;;;;4990096;28;20037;-76
2022/11/01 01:14:28;;;;;;;12.27;5.50;;;13.90;99.90;;;;;;4990586;28;20037;-76
2022/11/01 01:16:54;;;;;;;15.48;6.00;;;13.90;99.90;;;;;;4991523;28;20045;-76
2022/11/01 01:19:19;;;;;;;10.52;5.75;;;13.90;99.90;;;;;;4991509;28;20390;-77
2022/11/01 01:21:45;;;;;;;11.93;6.32;;;13.90;99.90;;;;;;4990177;28;20034;-77
2022/11/01 01:24:11;;;;;;;13.10;5.75;;;13.90;99.90;;;;;;4992281;28;20030;-76
2022/11/01 01:26:37;;;;;;;9.13;5.00;;;13.90;99.90;;;;;;4995103;28;20613;-77
2022/11/01 01:29:03;;;;;;;10.52;5.90;;;14.00;99.90;;;;;;4994748;28;20026;-77
2022/11/01 01:31:28;;;;;;;18.67;6.07;;;14.00;99.90;;;;;;4993642;28;20038;-77
2022/11/01 01:33:56;;;;;;;10.55;4.72;;;14.00;99.90;;;;;;4993984;28;20113;-77
2022/11/01 01:36:22;;;;;;;16.27;5.88;;;14.00;99.90;;;;;;4994860;28;20034;-77
2022/11/01 01:38:51;;;;;;;16.45;6.05;;;14.00;99.90;;;;;;4994506;28;20073;-77
2022/11/01 01:44:41;;;;;;;11.70;5.88;;;14.10;99.90;;;;;;4992999;28;20022;-76
2022/11/01 01:47:11;;;;;;;16.33;6.50;;;14.10;99.90;;;;;;4994503;28;20038;-76
2022/11/01 01:49:38;;;;;;;9.30;5.45;;;14.10;99.90;;;;;;4994966;28;20026;-76
2022/11/01 01:52:04;;;;;;;13.27;5.50;;;14.20;99.90;;;;;;4993327;28;20026;-77
2022/11/01 01:54:31;;;;;;;11.95;5.57;;;14.20;99.90;;;;;;4993373;28;20038;-77
2022/11/01 01:56:58;;;;;;;13.05;6.03;;;14.10;99.90;;;;;;4993163;28;20081;-76
2022/11/01 01:59:24;;;;;;;9.88;5.05;;;14.10;99.90;;;;;;5009532;28;20030;-76
2022/11/01 02:01:50;;;;;;;15.70;4.85;;;14.20;99.90;;;;;;4976879;28;20036;-76
2022/11/01 02:04:44;;;;;;;12.60;4.47;;;14.20;99.90;;;;;;4990656;28;20413;-76
2022/11/01 02:07:10;;;;;;;9.77;5.70;;;14.20;99.90;;;;;;4994436;28;20074;-77
2022/11/01 02:09:37;;;;;;;11.05;5.57;;;14.20;99.90;;;;;;4983158;28;20030;-76
2022/11/01 02:12:03;;;;;;;6.40;3.75;;;14.20;99.90;;;;;;4963801;28;20039;-76
2022/11/01 02:14:30;;;;;;;7.53;4.47;;;14.20;99.90;;;;;;4972545;28;20026;-76
2022/11/01 02:17:23;;;;;;;10.63;4.60;;;14.20;99.90;;;;;;4973236;28;20391;-76
2022/11/01 02:20:36;;;;;;;7.50;4.28;;;14.10;99.90;;;;;;4975098;28;20239;-76
2022/11/01 02:24:01;;;;;;;11.57;4.05;;;14.10;99.90;;;;;;4972515;28;20038;-76
2022/11/01 02:26:53;;;;;;;17.20;5.05;;;14.10;99.90;;;;;;4974403;28;20380;-76
2022/11/01 02:30:02;;;;;;;14.48;4.53;;;14.20;99.90;;;;;;4974295;28;20034;-77
2022/11/01 02:32:48;;;;;;;10.07;4.50;;;14.20;99.90;;;;;;4973231;28;20030;-76
2022/11/01 02:35:53;;;;;;;10.55;4.97;;;14.20;99.90;;;;;;4972917;28;20046;-76
2022/11/01 02:38:47;;;;;;;7.20;3.97;;;14.20;99.90;;;;;;4972819;28;20026;-75
2022/11/01 02:41:31;;;;;;;8.07;4.10;;;14.20;99.90;;;;;;4979917;28;20049;-77
2022/11/01 02:44:06;;;;;;;15.60;4.72;;;14.30;99.90;;;;;;4991654;28;20026;-77
2022/11/01 02:49:29;;;;;;;17.65;5.07;;;14.30;99.90;;;;;;4992347;28;20045;-77
2022/11/01 02:51:56;;;;;;;;;;;14.30;99.90;;;;;;4992448;28;20101;-77
2022/11/01 02:54:37;;;;;;;11.77;5.30;;;14.40;99.90;;;;;;5004732;23;19946;-69
2022/11/01 02:57:27;;;;;;;9.65;4.30;;;14.40;99.90;;;;;;4997836;28;20379;-69
2022/11/01 03:00:01;;;;;;;8.43;5.10;;;14.40;99.90;;;;;;4991518;28;20066;-68
2022/11/01 03:02:39;;;;;;;12.13;5.38;;;14.30;99.90;;;;;;4991701;28;20339;-69
2022/11/01 03:05:27;;;;;;;13.73;5.80;;;14.30;99.90;;;;;;4981020;28;20674;-68
2022/11/01 03:08:05;;;;;;;19.10;5.82;;;14.20;99.90;;;;;;4975652;28;20050;-69
2022/11/01 03:11:11;;;;;;;8.23;4.68;;;14.20;99.90;;;;;;4972296;28;20043;-69
2022/11/01 03:14:17;;;;;;;9.55;4.78;;;14.20;99.90;;;;;;4972801;28;20031;-69
2022/11/01 03:17:10;;;;;;;11.13;5.18;;;14.20;99.90;;;;;;4991285;28;20069;-69
2022/11/01 03:20:02;;;;;;;8.05;4.68;;;14.20;99.90;;;;;;4985387;28;20105;-70
2022/11/01 03:22:47;;;;;;;9.40;4.80;;;14.10;99.90;;;;;;4971081;28;20023;-69
2022/11/01 03:25:39;;;;;;;9.38;5.13;;;14.00;99.90;;;;;;4971496;28;20530;-69
2022/11/01 03:28:26;;;;;;;9.15;5.18;;;14.00;99.90;;;;;;4972799;28;20035;-69
2022/11/01 03:31:01;;;;;;;14.60;5.15;;;13.90;99.90;;;;;;4971764;28;20582;-69
2022/11/01 03:33:30;;;;;;;8.02;5.00;;;13.90;99.90;;;;;;4970748;28;20051;-69
2022/11/01 03:36:02;;;;;;;11.52;5.57;;;13.80;99.90;;;;;;4972758;28;20031;-68
2022/11/01 03:38:33;;;;;;;12.07;5.20;;;13.80;99.90;;;;;;4952065;29;20448;-68
2022/11/01 03:41:03;;;;;;;14.57;6.22;;;13.70;99.90;;;;;;4952338;29;20037;-67
2022/11/01 03:43:31;;;;;;;10.35;5.28;;;13.70;99.90;;;;;;4951278;29;20043;-68
2022/11/01 03:45:57;;;;;;;13.70;5.82;;;13.70;99.90;;;;;;4951780;28;20027;-68
2022/11/01 03:48:23;;;;;;;13.05;5.40;;;13.70;99.90;;;;;;4952954;29;20043;-67
2022/11/01 03:50:52;;;;;;;14.75;5.38;;;13.70;99.90;;;;;;4952090;29;20027;-68
2022/11/01 03:53:19;;;;;;;11.57;5.15;;;13.60;99.90;;;;;;4951006;29;20043;-68
2022/11/01 03:55:44;;;;;;;7.93;4.70;;;13.70;99.90;;;;;;4953491;29;20031;-68
2022/11/01 03:58:10;;;;;;;17.00;5.88;;;13.70;99.90;;;;;;4953004;29;20396;-69
2022/11/01 04:00:40;;;;;;;14.48;5.03;;;13.70;99.90;;;;;;4953136;29;20031;-68
2022/11/01 04:03:07;;;;;;;17.35;5.55;;;13.80;99.90;;;;;;4950994;29;20131;-68
2022/11/01 04:05:35;;;;;;;11.02;4.95;;;13.80;99.90;;;;;;4952977;29;20126;-68
2022/11/01 04:08:01;;;;;;;18.77;6.00;;;13.80;99.90;;;;;;4951723;29;20454;-69
2022/11/01 04:10:28;;;;;;;16.52;5.82;;;13.80;99.90;;;;;;4958442;28;20053;-68
2022/11/01 04:12:54;;;;;;;12.75;6.35;;;13.80;99.90;;;;;;4991034;28;20140;-68
2022/11/01 04:21:16;;;;;;;26.77;6.72;;;13.80;99.90;;;;;;4972078;28;20490;-68
2022/11/01 04:23:43;;;;;;;22.17;5.85;;;13.80;99.90;;;;;;4969972;28;20031;-67
2022/11/01 04:26:16;;;;;;;13.68;5.90;;;13.80;99.90;;;;;;4970761;28;20026;-68
2022/11/01 04:28:43;;;;;;;12.73;6.15;;;13.80;99.90;;;;;;4971933;28;20033;-68
2022/11/01 04:31:09;;;;;;;20.67;6.43;;;13.80;99.90;;;;;;4972001;28;20424;-68
2022/11/01 04:33:35;;;;;;;23.45;6.28;;;13.80;99.90;;;;;;4969960;28;20104;-68
2022/11/01 04:36:07;;;;;;;12.18;5.95;;;13.90;99.90;;;;;;4971822;28;20093;-68
2022/11/01 04:38:33;;;;;;;12.85;5.20;;;13.90;99.90;;;;;;4970668;28;20035;-68
2022/11/01 04:40:59;;;;;;;12.18;6.68;;;13.80;99.90;;;;;;4972109;28;20606;-68
2022/11/01 04:43:24;;;;;;;28.15;5.70;;;13.80;99.90;;;;;;4970945;28;20035;-68
2022/11/01 04:45:56;;;;;;;12.45;5.95;;;13.80;99.90;;;;;;4972040;28;20406;-68
2022/11/01 04:48:22;;;;;;;11.13;5.50;;;13.90;99.90;;;;;;4970448;28;20093;-68
2022/11/01 04:50:48;;;;;;;8.82;4.70;;;13.90;99.90;;;;;;4971620;28;20538;-68
2022/11/01 04:53:14;;;;;;;13.80;5.78;;;13.80;99.90;;;;;;4970861;28;20034;-68
2022/11/01 04:55:40;;;;;;;13.88;6.40;;;13.80;99.90;;;;;;4971386;28;20023;-70
2022/11/01 04:58:06;;;;;;;14.85;5.43;;;13.80;99.90;;;;;;4973796;28;20031;-68
2022/11/01 05:00:33;;;;;;;14.30;6.25;;;13.80;99.90;;;;;;4975449;28;20027;-68
2022/11/01 05:03:07;;;;;;;10.88;6.57;;;13.80;99.90;;;;;;4973981;28;20030;-69
2022/11/01 05:05:34;;;;;;;15.63;5.78;;;13.80;99.90;;;;;;4975604;28;20031;-69
2022/11/01 05:08:11;;;;;;;15.00;5.97;;;13.80;99.90;;;;;;4974073;28;20042;-69
2022/11/01 05:10:43;;;;;;;11.65;5.88;;;13.80;99.90;;;;;;4978332;28;20026;-69
2022/11/01 05:13:10;;;;;;;15.48;6.78;;;13.80;99.90;;;;;;4992880;28;20054;-68
2022/11/01 05:15:37;;;;;;;12.30;5.40;;;13.80;99.90;;;;;;4985308;28;20033;-69
2022/11/01 05:18:04;;;;;;;17.83;7.10;;;13.80;99.90;;;;;;4975375;28;20034;-68
2022/11/01 05:20:30;;;;;;;7.35;5.05;;;13.90;99.90;;;;;;4975207;28;20089;-68
2022/11/01 05:23:02;;;;;;;12.68;6.50;;;13.90;99.90;;;;;;4973390;28;20031;-69
2022/11/01 05:25:29;;;;;;;15.25;6.80;;;13.90;99.90;;;;;;4973774;28;20038;-69
2022/11/01 05:27:59;;;;;;;13.27;5.93;;;13.90;99.90;;;;;;4973846;28;20027;-69
2022/11/01 05:30:25;;;;;;;9.75;5.65;;;13.90;99.90;;;;;;4974673;28;20062;-69
2022/11/01 05:32:59;;;;;;;13.20;6.30;;;14.00;99.90;;;;;;4977085;28;20087;-69
2022/11/01 05:35:26;;;;;;;28.05;6.40;;;13.90;99.90;;;;;;4973583;28;20019;-68
2022/11/01 05:37:52;;;;;;;13.02;6.25;;;13.90;99.90;;;;;;4973686;28;20062;-68
2022/11/01 05:40:18;;;;;;;14.18;5.90;;;13.90;99.90;;;;;;4973664;28;20066;-69
2022/11/01 05:42:43;;;;;;;18.27;5.57;;;13.90;99.90;;;;;;4974096;28;20037;-69
2022/11/01 05:45:10;;;;;;;12.68;5.53;;;13.90;99.90;;;;;;4974516;28;20074;-69
2022/11/01 05:47:35;;;;;;;13.50;5.97;;;13.90;99.90;;;;;;4974699;28;20031;-69
2022/11/01 05:50:01;;;;;;;9.40;4.57;;;13.90;99.90;;;;;;4974931;28;20035;-69
2022/11/01 05:52:27;;;;;;;14.60;5.35;;;13.90;99.90;;;;;;4974261;28;20066;-68
2022/11/01 05:54:52;;;;;;;8.93;5.43;;;13.90;99.90;;;;;;4974485;28;20832;-69
2022/11/01 05:57:18;;;;;;;15.30;5.70;;;13.90;99.90;;;;;;4973387;28;20034;-69
2022/11/01 05:59:44;;;;;;;12.10;5.38;;;13.90;99.90;;;;;;4974387;28;20151;-69
2022/11/01 06:02:09;;;;;;;15.93;4.85;;;13.90;99.90;;;;;;4973174;28;20475;-69
2022/11/01 06:04:35;;;;;;;7.95;4.93;;;14.00;99.90;;;;;;4973900;28;20070;-69
2022/11/01 06:07:02;;;;;;;8.05;4.90;;;14.00;99.90;;;;;;4972997;28;20046;-69
2022/11/01 06:09:29;;;;;;;10.13;5.38;;;14.10;99.90;;;;;;4972807;28;20026;-69
2022/11/01 06:11:54;;;;;;;7.28;4.60;;;14.10;99.90;;;;;;4988847;28;20168;-69
2022/11/01 06:14:20;;;;;;;7.85;5.00;;;14.10;99.90;;;;;;4993198;28;20109;-69
2022/11/01 06:16:46;;;;;;;8.18;3.78;;;14.20;99.90;;;;;;4974818;28;20037;-69
2022/11/01 06:19:11;;;;;;;16.30;4.53;;;14.20;99.90;;;;;;4974384;28;20030;-68
2022/11/01 06:21:37;;;;;;;16.70;4.97;;;14.30;99.90;;;;;;4972942;28;20027;-69
2022/11/01 06:24:03;;;;;;;10.82;5.30;;;14.30;99.90;;;;;;4973250;28;20406;-69
2022/11/01 06:26:29;;;;;;;9.98;3.28;;;14.40;99.90;;;;;;4974083;28;20030;-69
2022/11/01 06:28:55;;;;;;;8.55;4.38;;;14.50;99.90;;;;;;4973649;28;20046;-69
2022/11/01 06:31:21;;;;;;;8.77;3.88;;;14.50;99.90;;;;;;4972789;28;20039;-69
2022/11/01 06:33:49;;;;;;;9.73;3.80;;;14.60;99.90;;;;;;4973065;28;20023;-69
2022/11/01 06:36:14;;;;;;;10.65;4.03;;;14.60;99.90;;;;;;4972565;28;20085;-69
2022/11/01 06:38:40;;;;;;;7.68;3.75;;;14.60;99.90;;;;;;4973570;28;20035;-68
2022/11/01 06:41:06;;;;;;;11.45;4.50;;;14.60;99.90;;;;;;4973983;28;20033;-69
2022/11/01 06:43:31;;;;;;;4.30;3.22;;;14.60;99.90;;;;;;4971489;28;20066;-69
2022/11/01 06:46:00;;;;;;;8.95;3.65;;;14.60;99.90;;;;;;4973678;28;20043;-69
2022/11/01 06:48:27;;;;;;;6.60;3.35;;;14.60;99.90;;;;;;4972333;28;20031;-69
2022/11/01 06:50:54;;;;;;;5.88;3.15;;;14.60;99.90;;;;;;4972467;28;20037;-69
2022/11/01 06:53:22;;;;;;;7.78;3.80;;;14.60;99.90;;;;;;4971497;28;20106;-69
2022/11/01 06:55:48;;;;;;;7.68;3.45;;;14.70;99.90;;;;;;4972522;28;20290;-69
2022/11/01 06:58:13;;;;;;;5.72;4.20;;;14.60;99.90;;;;;;4972017;28;20434;-69
2022/11/01 07:00:39;;;;;;;12.70;4.40;;;14.60;99.90;;;;;;4972236;28;20034;-69
2022/11/01 07:03:09;;;;;;;6.25;3.33;;;14.70;99.90;;;;;;4972022;28;20030;-69
2022/11/01 07:05:37;;;;;;;15.68;3.40;;;14.70;99.90;;;;;;4972381;28;20118;-69
2022/11/01 07:08:06;;;;;;;6.53;3.00;;;14.70;99.90;;;;;;4973435;28;20121;-69
2022/11/01 07:10:32;;;;;;;6.13;3.17;;;14.70;99.90;;;;;;4975624;28;20028;-69
2022/11/01 07:13:02;;;;;;;7.13;2.95;;;14.70;99.90;;;;;;4991950;28;20133;-69
2022/11/01 07:15:29;;;;;;;5.03;2.78;;;14.70;99.90;;;;;;4992802;28;20548;-69
2022/11/01 07:17:56;;;;;;;4.93;2.33;;;14.70;99.90;;;;;;4991367;28;20049;-69
2022/11/01 07:20:23;;;;;;;8.18;3.40;;;14.70;99.90;;;;;;4992054;28;20500;-69
2022/11/01 07:23:04;;;;;;;5.25;2.47;;;14.80;99.90;;;;;;4991668;28;20030;-69
2022/11/01 07:25:31;;;;;;;4.15;2.55;;;14.80;99.90;;;;;;4992553;28;20030;-69
2022/11/01 07:27:58;;;;;;;5.32;3.03;;;14.80;99.90;;;;;;4991305;28;20121;-69
2022/11/01 07:30:25;;;;;;;8.68;3.80;;;14.90;99.90;;;;;;4988870;28;20459;-68
2022/11/01 07:33:00;;;;;;;5.93;2.25;;;14.90;99.90;;;;;;4970788;28;20030;-69
2022/11/01 07:35:26;;;;;;;3.00;1.90;;;15.00;99.90;;;;;;4972972;28;20474;-69
2022/11/01 07:37:56;;;;;;;5.45;3.47;;;15.00;99.90;;;;;;4973019;28;20035;-68
2022/11/01 07:40:26;;;;;;;8.18;2.42;;;15.00;99.90;;;;;;4972764;28;20031;-69
2022/11/01 07:42:58;;;;;;;15.38;3.60;;;15.00;99.90;;;;;;4971967;28;20038;-70
2022/11/01 07:45:26;;;;;;;9.65;2.53;;;15.10;99.90;;;;;;4971473;28;20030;-67
2022/11/01 07:47:52;;;;;;;8.27;3.67;;;15.10;99.90;;;;;;4972601;28;20035;-68
2022/11/01 07:50:19;;;;;;;4.65;2.58;;;15.10;99.90;;;;;;4972661;28;20035;-67
2022/11/01 07:52:45;;;;;;;5.90;2.92;;;15.10;99.90;;;;;;4972215;28;20057;-67
2022/11/01 07:55:11;;;;;;;3.55;2.20;;;15.20;99.90;;;;;;4970981;28;20038;-66
2022/11/01 07:57:40;;;;;;;5.22;2.15;;;15.30;99.90;;;;;;4972846;28;20184;-66
2022/11/01 08:00:08;;;;;;;2.85;2.00;;;15.30;99.90;;;;;;4968410;28;20572;-67
2022/11/01 08:02:34;;;;;;;4.82;2.08;;;15.40;99.90;;;;;;4969383;28;20047;-67
2022/11/01 08:05:00;;;;;;;4.18;2.03;;;15.30;99.90;;;;;;4970003;28;20038;-68
2022/11/01 08:07:25;;;;;;;6.75;1.75;;;15.40;99.90;;;;;;4971453;28;20026;-68
2022/11/01 08:09:51;;;;;;;5.22;2.38;;;15.40;99.90;;;;;;4970761;28;20034;-67
2022/11/01 08:12:17;;;;;;;6.10;2.63;;;15.50;99.90;;;;;;4971960;28;20027;-68
2022/11/01 08:14:42;;;;;;;3.75;1.85;;;15.50;99.90;;;;;;4971671;28;20030;-68
2022/11/01 08:17:08;;;;;;;5.25;2.05;;;15.70;99.90;;;;;;4972192;28;20062;-68
2022/11/01 08:19:34;;;;;;;5.25;2.33;;;15.60;99.90;;;;;;4971347;28;20043;-68
2022/11/01 08:21:59;;;;;;;5.00;2.47;;;15.70;99.90;;;;;;4972342;28;20038;-67
2022/11/01 08:24:26;;;;;;;5.78;2.20;;;15.70;99.90;;;;;;4969982;28;20442;-68
2022/11/01 08:26:52;;;;;;;3.83;1.83;;;15.70;99.90;;;;;;4970473;28;20039;-68
2022/11/01 08:29:19;;;;;;;7.68;1.95;;;15.70;99.90;;;;;;4970660;28;20038;-68
2022/11/01 08:31:46;;;;;;;4.55;2.80;;;15.80;99.90;;;;;;4970620;28;20030;-68
2022/11/01 08:34:12;;;;;;;4.28;1.77;;;15.80;99.90;;;;;;4970891;28;20027;-68
2022/11/01 08:36:38;;;;;;;5.18;1.80;;;15.70;99.90;;;;;;4971965;28;20093;-68
2022/11/01 08:39:03;;;;;;;3.95;1.80;;;15.80;99.90;;;;;;4972023;28;20105;-68
2022/11/01 08:41:29;;;;;;;2.50;1.73;;;15.80;99.90;;;;;;4971742;28;20106;-68
2022/11/01 08:43:56;;;;;;;4.97;1.27;;;15.80;99.90;;;;;;4971198;28;20085;-68
2022/11/01 08:46:22;;;;;;;4.93;2.03;;;15.80;99.90;;;;;;4971783;28;20030;-67
2022/11/01 08:48:51;;;;;;;2.95;1.83;;;15.90;99.90;;;;;;4986673;28;20407;-67
2022/11/01 08:51:24;;;;;;;8.23;2.10;;;15.90;99.90;;;;;;4980279;28;20122;-67
2022/11/01 08:53:55;;;;;;;4.75;1.98;;;15.80;99.90;;;;;;4970669;28;20030;-67
2022/11/01 08:56:25;;;;;;;2.67;1.50;;;15.80;99.90;;;;;;5004154;23;20498;-78
2022/11/01 08:58:53;;;;;;;3.85;1.92;;;15.80;99.90;;;;;;5003985;28;20063;-75
2022/11/01 09:01:20;;;;;;;13.02;2.28;;;15.70;99.90;;;;;;5010608;28;20482;-75
2022/11/01 09:03:46;;;;;;;2.40;1.45;;;15.80;99.90;;;;;;4992671;28;20096;-72
2022/11/01 09:06:13;;;;;;;9.90;2.22;;;15.70;99.90;;;;;;5010698;28;20493;-72
2022/11/01 09:08:38;;;;;;;6.93;2.03;;;15.70;99.90;;;;;;4995072;28;20050;-71
2022/11/01 09:11:05;;;;;;;7.57;2.55;;;15.60;99.90;;;;;;5004337;28;20026;-70
2022/11/01 09:13:32;;;;;;;3.28;1.70;;;15.60;99.90;;;;;;4981797;28;20026;-71
2022/11/01 09:15:58;;;;;;;6.55;1.38;;;15.60;99.90;;;;;;4976100;28;20031;-71
2022/11/01 09:18:23;;;;;;;4.90;2.30;;;15.70;99.90;;;;;;4971557;28;20487;-71
2022/11/01 09:20:54;;;;;;;7.93;2.03;;;15.70;99.90;;;;;;4971570;28;20026;-71
2022/11/01 09:23:19;;;;;;;3.03;1.80;;;15.70;99.90;;;;;;4970796;28;20031;-70
2022/11/01 09:25:45;;;;;;;11.00;2.63;;;15.70;99.90;;;;;;4970412;28;20410;-71
2022/11/01 09:28:11;;;;;;;6.60;2.40;;;15.60;99.90;;;;;;4971317;28;20038;-71
2022/11/01 09:30:36;;;;;;;4.47;2.30;;;15.60;99.90;;;;;;4976202;28;20640;-72
2022/11/01 09:33:06;;;;;;;7.97;1.83;;;15.70;99.90;;;;;;4986681;28;20038;-70
2022/11/01 09:35:33;;;;;;;13.73;1.90;;;15.80;99.90;;;;;;4982722;28;20037;-71
2022/11/01 09:38:01;;;;;;;3.65;1.80;;;15.70;99.90;;;;;;4972944;28;20064;-72
2022/11/01 09:40:34;;;;;;;4.32;1.40;;;15.70;99.90;;;;;;4970006;28;20035;-70
2022/11/01 09:43:02;;;;;;;2.97;1.80;;;15.90;99.90;;;;;;4976420;28;20115;-70
2022/11/01 09:45:31;;;;;;;3.80;1.95;;;16.20;99.90;;;;;;4992086;28;20048;-72
2022/11/01 09:47:58;;;;;;;4.05;1.95;;;16.30;99.90;;;;;;5008286;28;20042;-71
2022/11/01 09:50:33;;;;;;;6.20;1.50;;;16.80;99.90;;;;;;4985416;28;20058;-71
2022/11/01 09:53:01;;;;;;;2.50;1.13;;;17.10;99.90;;;;;;4990334;28;20026;-71
2022/11/01 09:55:39;;;;;;;1.23;0.70;;;16.90;99.90;;;;;;4992600;28;20035;-70
2022/11/01 09:58:46;;;;;;;0.68;0.43;;;16.50;99.90;;;;;;4994368;28;20442;-72
2022/11/01 10:01:51;;;;;;;4.40;1.25;;;16.30;99.90;;;;;;4994122;28;20041;-71
2022/11/01 10:04:25;;;;;;;1.58;0.80;;;16.10;99.90;;;;;;4992017;28;20030;-70
2022/11/01 10:07:06;;;;;;;2.75;1.05;;;16.00;99.90;;;;;;4991771;28;20554;-71
2022/11/01 10:10:04;;;;;;;6.85;1.35;;;16.00;99.90;;;;;;4988176;28;20046;-72
2022/11/01 10:12:59;;;;;;;2.65;0.25;;;16.10;99.90;;;;;;4980479;28;20092;-80
2022/11/01 10:15:30;;;;;;;0.75;0.40;;;16.10;99.90;;;;;;4974300;28;20054;-71
2022/11/01 10:18:06;;;;;;;0.57;0.47;;;16.20;99.90;;;;;;4993644;28;20065;-71
2022/11/01 10:20:37;;;;;;;2.63;0.50;;;16.20;99.90;;;;;;4993633;28;20042;-71
2022/11/01 10:23:04;;;;;;;6.45;1.17;;;16.10;99.90;;;;;;4991609;28;20045;-71
2022/11/01 10:25:34;;;;;;;0.38;0.30;;;16.30;99.90;;;;;;4990706;28;20117;-71
2022/11/01 10:28:18;;;;;;;0.52;0.30;;;16.40;99.90;;;;;;4972961;28;20040;-71
2022/11/01 10:30:49;;;;;;;0.13;0.10;;;16.40;99.90;;;;;;4973948;28;20543;-72
2022/11/01 10:33:30;;;;;;;0.50;0.30;;;16.70;99.90;;;;;;4978828;28;20035;-72
2022/11/01 10:36:12;;;;;;;;;;;16.80;99.90;;;;;;4988190;28;20108;-71
2022/11/01 10:38:45;;;;;;;0.52;0.22;;;16.90;99.90;;;;;;4988962;28;19910;-72
2022/11/01 10:41:39;;;;;;;0.40;0.25;;;17.10;99.90;;;;;;4972753;28;20022;-74
2022/11/01 10:44:33;;;;;;;2.67;0.40;;;17.20;99.90;;;;;;4971708;28;20542;-74
2022/11/01 10:47:05;;;;;;;0.60;0.20;;;17.50;99.90;;;;;;4972269;28;20049;-73
2022/11/01 10:49:35;;;;;;;1.63;0.47;;;17.50;99.90;;;;;;4973273;28;20031;-73
2022/11/01 10:52:08;;;;;;;5.32;0.35;;;18.10;99.90;;;;;;4972474;28;20034;-74
2022/11/01 10:54:40;;;;;;;0.65;0.25;;;18.00;99.90;;;;;;4971196;28;20027;-73
2022/11/01 10:57:29;;;;;;;0.93;0.28;;;18.30;99.90;;;;;;4972244;28;20113;-74
2022/11/01 10:59:58;;;;;;;4.10;0.25;;;18.40;99.90;;;;;;4980013;28;20049;-73
2022/11/01 11:02:57;;;;;;;1.00;0.43;;;18.90;99.90;;;;;;4991147;28;20030;-74
2022/11/01 11:05:27;;;;;;;0.98;0.30;;;19.40;99.90;;;;;;4983053;28;20581;-75
2022/11/01 11:07:56;;;;;;;0.68;0.60;;;20.10;99.90;;;;;;4991588;28;20038;-74
2022/11/01 11:10:27;;;;;;;1.45;0.35;;;20.00;99.90;;;;;;4989139;28;20026;-76
2022/11/01 11:13:03;;;;;;;1.75;0.35;;;21.60;99.30;;;;;;4972498;28;20038;-74
2022/11/01 11:15:44;;;;;;;14.77;2.35;;;21.80;99.00;;;;;;4978367;28;20030;-74
2022/11/01 11:18:36;;;;;;;0.88;0.43;;;22.90;97.40;;;;;;4985072;28;20030;-74
2022/11/01 11:21:07;;;;;;;1.63;0.30;;;22.80;96.80;;;;;;4981382;28;20117;-77
2022/11/01 11:23:39;;;;;;;1.02;0.40;;;23.00;94.10;;;;;;4988294;28;20027;-54
2022/11/01 11:26:16;;;;;;;1.00;0.40;;;22.00;96.80;;;;;;4971978;28;20038;-51
2022/11/01 11:28:48;;;;;;;8.70;2.75;;;23.70;95.00;;;;;;4976773;28;20026;-77
2022/11/01 11:31:27;;;;;;;1.25;0.30;;;23.00;95.70;;;;;;4985170;28;20078;-75
2022/11/01 11:33:58;;;;;;;4.05;0.80;;;23.90;94.40;;;;;;4975687;28;20045;-78
2022/11/01 11:36:32;;;;;;;4.72;0.38;;;22.30;95.50;;;;;;4984771;28;20169;-81
2022/11/01 11:38:59;;;;;;;2.65;0.63;;;22.90;95.30;;;;;;4991042;28;20494;-80
2022/11/01 11:41:35;;;;;;;1.20;0.43;;;22.10;95.80;;;;;;4992345;28;20081;-79
2022/11/01 11:44:02;;;;;;;2.00;0.38;;;22.80;95.10;;;;;;4990391;28;20037;-73
2022/11/01 11:46:28;;;;;;;1.17;0.57;;;22.10;95.60;;;;;;4992010;28;20038;-77
2022/11/01 11:49:03;;;;;;;0.90;0.30;;;22.00;95.10;;;;;;4973973;28;20065;-75
2022/11/01 11:51:36;;;;;;;2.60;0.32;;;21.80;95.60;;;;;;4972331;28;20124;-72
2022/11/01 11:54:30;;;;;;;4.95;0.45;;;21.40;96.70;;;;;;4970666;28;20037;-76
2022/11/01 11:57:26;;;;;;;0.90;0.22;;;22.10;95.30;;;;;;4971068;28;20863;-71
2022/11/01 11:59:58;;;;;;;0.60;0.40;;;21.20;96.00;;;;;;4971103;28;20031;-78
2022/11/01 12:02:30;;;;;;;4.90;0.57;;;21.10;96.60;;;;;;4972839;28;20039;-75
2022/11/01 12:05:04;;;;;;;0.70;0.30;;;20.20;97.30;;;;;;4970836;28;20039;-75
2022/11/01 12:07:44;;;;;;;2.60;0.38;;;20.20;98.80;;;;;;4987681;28;20045;-76
2022/11/01 12:10:36;;;;;;;0.90;0.57;;;20.30;97.90;;;;;;4986713;28;20049;-75
2022/11/01 12:13:27;;;;;;;1.63;0.22;;;20.60;98.30;;;;;;5005596;28;20038;-75
2022/11/01 12:16:20;;;;;;;0.93;0.45;;;20.20;98.60;;;;;;4990086;28;20030;-75
2022/11/01 12:18:48;;;;;;;5.05;0.50;;;20.50;98.60;;;;;;5005338;28;20038;-73
2022/11/01 12:21:41;;;;;;;1.77;0.25;;;20.50;98.60;;;;;;4987990;28;20117;-76
2022/11/01 12:24:16;;;;;;;0.98;0.63;;;21.50;98.30;;;;;;4996984;28;20038;-74
2022/11/01 12:26:43;;;;;;;4.95;0.38;;;21.90;96.20;;;;;;4989679;28;20037;-75
2022/11/01 12:29:36;;;;;;;2.63;0.55;;;21.70;96.20;;;;;;4986992;28;20491;-74
2022/11/01 12:32:30;;;;;;;1.50;0.38;;;20.50;98.70;;;;;;4991230;28;20030;-74
2022/11/01 12:35:02;;;;;;;5.45;0.70;;;21.30;96.30;;;;;;4990314;28;20404;-75
2022/11/01 12:38:37;;;;;;;2.97;0.10;;;21.90;95.40;;;;;;4990307;28;20041;-74
2022/11/01 12:41:50;;;;;;;1.02;0.40;;;21.20;96.60;;;;;;4976315;28;20537;-74
2022/11/01 12:44:33;;;;;;;4.47;0.20;;;21.50;95.70;;;;;;4970546;28;20089;-71
2022/11/01 12:47:13;;;;;;;1.02;0.28;;;21.10;96.70;;;;;;4990934;28;20038;-74
2022/11/01 12:50:01;;;;;;;5.82;0.47;;;21.00;97.60;;;;;;5000694;28;20088;-73
2022/11/01 12:52:55;;;;;;;1.48;0.38;;;21.40;96.20;;;;;;4979055;28;20100;-75
2022/11/01 12:55:38;;;;;;;5.68;0.40;;;20.50;97.30;;;;;;4989571;28;20039;-75
2022/11/01 12:58:09;;;;;;;4.60;0.43;;;20.60;97.90;;;;;;4989929;28;20034;-75
2022/11/01 13:01:04;;;;;;;1.50;0.40;;;20.80;97.50;;;;;;4989994;28;20489;-75
2022/11/01 13:04:08;;;;;;;2.00;0.38;;;20.80;97.70;;;;;;4989187;28;20158;-75
2022/11/01 13:07:12;;;;;;;2.38;0.30;;;20.70;97.60;;;;;;4974147;28;20042;-75
2022/11/01 13:09:51;;;;;;;1.77;0.30;;;21.10;97.00;;;;;;4986450;28;20086;-77
2022/11/01 13:12:34;;;;;;;2.20;1.02;;;20.30;97.10;;;;;;4983164;28;20034;-77
2022/11/01 13:15:26;;;;;;;1.67;0.32;;;20.30;98.20;;;;;;4970170;28;20372;-76
2022/11/01 13:18:26;;;;;;;1.58;0.30;;;20.70;98.10;;;;;;4970149;28;20027;-77
2022/11/01 13:21:26;;;;;;;1.10;0.70;;;21.00;96.90;;;;;;4973731;28;20031;-76
2022/11/01 13:24:23;;;;;;;0.22;0.15;;;21.70;95.60;;;;;;4974495;28;20039;-73